sim
Sign-in with your pilot id or email,
or register
Callsign
Passwort

Schedule Details

Flight Number: EWG652 (3)
Departure: Cologne Bonn Airport (EDDK) at 15:00
Arrival: Thessaloniki International Airport (LGTS) at 17:30
Route: Eurowings Passenger Schedule. Enter filed route here before submitting Pirep.

Weather Information
Getting current METAR information for EDDK 211520Z 30008KT 9999 FEW028 SCT040 12/07 Q1027 NOSIG
Getting current METAR information for LGTS 211520Z 35006KT CAVOK 16/00 Q1021 NOSIG

Schedule Frequency

Route Map